Time;durP1;ratioP1;P1;durP2;ratioP2;P2;SDS_P1;SDS_P2;PMS_P1;PMS_P2;Temp;Humidity;BMP_temperature;BMP_pressure;BME280_temperature;BME280_humidity;BME280_pressure;Samples;Min_cycle;Max_cycle;Signal;HPM_P1;HPM_P2
2022/03/22 00:00:43;;;;;;;14.02;9.40;;;;;;;;;;5077724;28;20466;-82
2022/03/22 00:03:09;;;;;;;14.75;8.98;;;;;;;;;;5060397;28;20046;-80
2022/03/22 00:05:38;;;;;;;16.27;9.02;;;;;;;;;;5060793;28;20051;-80
2022/03/22 00:08:04;;;;;;;14.43;9.10;;;;;;;;;;5095304;28;20105;-81
2022/03/22 00:10:30;;;;;;;13.13;9.25;;;;;;;;;;5077965;28;20052;-80
2022/03/22 00:12:55;;;;;;;14.77;9.13;;;;;;;;;;5060301;28;20032;-81
2022/03/22 00:15:20;;;;;;;13.82;9.52;;;;;;;;;;5077386;28;20083;-81
2022/03/22 00:17:46;;;;;;;15.30;9.85;;;;;;;;;;5060572;28;20058;-81
2022/03/22 00:20:11;;;;;;;12.43;9.93;;;;;;;;;;5076796;28;20543;-81
2022/03/22 00:22:40;;;;;;;16.08;9.68;;;;;;;;;;5059797;28;20073;-81
2022/03/22 00:25:07;;;;;;;14.55;9.30;;;;;;;;;;5076523;28;20032;-81
2022/03/22 00:27:50;;;;;;;13.57;9.52;;;;;;;;;;5059783;28;20093;-83
2022/03/22 00:30:18;;;;;;;15.52;10.20;;;;;;;;;;5095308;28;20039;-80
2022/03/22 00:32:43;;;;;;;14.02;9.43;;;;;;;;;;5076100;28;20035;-80
2022/03/22 00:35:09;;;;;;;19.63;9.85;;;;;;;;;;5095117;28;20036;-81
2022/03/22 00:37:37;;;;;;;17.90;9.50;;;;;;;;;;5094418;28;20493;-80
2022/03/22 00:40:07;;;;;;;14.70;9.43;;;;;;;;;;5094390;28;20559;-81
2022/03/22 00:42:33;;;;;;;13.35;9.80;;;;;;;;;;5060219;28;20036;-81
2022/03/22 00:44:58;;;;;;;17.23;9.30;;;;;;;;;;5094726;28;20080;-82
2022/03/22 00:47:24;;;;;;;13.80;8.70;;;;;;;;;;5094534;28;20432;-81
2022/03/22 00:49:49;;;;;;;13.45;8.38;;;;;;;;;;5094367;28;20028;-81
2022/03/22 00:52:15;;;;;;;13.23;9.32;;;;;;;;;;5042667;28;20447;-81
2022/03/22 00:54:40;;;;;;;14.40;9.55;;;;;;;;;;5094086;28;20044;-81
2022/03/22 00:57:06;;;;;;;12.05;8.45;;;;;;;;;;5094536;28;20459;-81
2022/03/22 01:02:15;;;;;;;11.75;8.15;;;;;;;;;;5064486;28;20086;-81
2022/03/22 01:04:40;;;;;;;13.52;7.97;;;;;;;;;;5094291;28;20032;-81
2022/03/22 01:07:06;;;;;;;13.05;8.25;;;;;;;;;;5075937;28;20024;-80
2022/03/22 01:09:31;;;;;;;12.50;8.05;;;;;;;;;;5094050;28;20118;-80
2022/03/22 01:11:57;;;;;;;14.00;8.80;;;;;;;;;;5075899;28;20074;-80
2022/03/22 01:14:25;;;;;;;12.02;8.07;;;;;;;;;;5094377;28;20510;-81
2022/03/22 01:16:52;;;;;;;13.60;8.43;;;;;;;;;;5075984;28;20085;-81
2022/03/22 01:19:21;;;;;;;12.40;7.65;;;;;;;;;;5059110;28;20081;-81
2022/03/22 01:21:47;;;;;;;12.38;8.40;;;;;;;;;;5076216;28;20107;-81
2022/03/22 01:24:12;;;;;;;12.65;8.55;;;;;;;;;;5093933;28;20510;-81
2022/03/22 01:26:38;;;;;;;13.88;7.47;;;;;;;;;;5058763;28;20031;-81
2022/03/22 01:29:03;;;;;;;12.40;8.50;;;;;;;;;;5075662;28;20028;-81
2022/03/22 01:31:29;;;;;;;12.35;7.90;;;;;;;;;;5093345;28;20110;-81
2022/03/22 01:33:54;;;;;;;14.55;7.90;;;;;;;;;;5093988;28;20020;-81
2022/03/22 01:36:21;;;;;;;10.82;7.53;;;;;;;;;;5075532;28;20046;-82
2022/03/22 01:38:47;;;;;;;13.35;8.38;;;;;;;;;;5059097;28;20058;-81
2022/03/22 01:41:13;;;;;;;12.43;7.43;;;;;;;;;;5075507;28;20454;-83
2022/03/22 01:43:39;;;;;;;10.52;7.50;;;;;;;;;;5057669;28;20491;-82
2022/03/22 01:46:04;;;;;;;10.80;7.05;;;;;;;;;;5075323;28;20054;-82
2022/03/22 01:48:30;;;;;;;26.20;7.70;;;;;;;;;;5093012;28;20024;-80
2022/03/22 01:50:55;;;;;;;11.40;8.00;;;;;;;;;;5058545;28;20043;-81
2022/03/22 01:53:21;;;;;;;11.57;7.35;;;;;;;;;;5092992;28;20030;-81
2022/03/22 01:55:47;;;;;;;12.05;8.30;;;;;;;;;;5092956;28;20051;-81
2022/03/22 01:58:14;;;;;;;11.65;7.90;;;;;;;;;;5093275;28;20480;-81
2022/03/22 02:00:39;;;;;;;13.02;8.10;;;;;;;;;;5074656;28;20028;-81
2022/03/22 02:05:56;;;;;;;10.55;7.47;;;;;;;;;;5093112;28;20031;-81
2022/03/22 02:08:27;;;;;;;12.25;7.85;;;;;;;;;;5075845;28;20028;-82
2022/03/22 02:10:53;;;;;;;11.23;7.63;;;;;;;;;;5074855;28;20024;-81
2022/03/22 02:13:19;;;;;;;11.20;7.75;;;;;;;;;;5093080;28;20324;-80
2022/03/22 02:15:48;;;;;;;11.55;8.00;;;;;;;;;;5093139;28;20028;-81
2022/03/22 02:18:13;;;;;;;10.57;7.45;;;;;;;;;;5075067;28;20036;-81
2022/03/22 02:20:39;;;;;;;11.77;7.40;;;;;;;;;;5075299;28;20028;-81
2022/03/22 02:23:06;;;;;;;10.40;7.22;;;;;;;;;;5093378;28;20039;-81
2022/03/22 02:25:35;;;;;;;14.32;7.65;;;;;;;;;;5058287;28;20111;-81
2022/03/22 02:28:01;;;;;;;18.02;8.00;;;;;;;;;;5058761;28;20036;-80
2022/03/22 02:30:26;;;;;;;10.10;7.38;;;;;;;;;;5075226;28;20081;-81
2022/03/22 02:32:56;;;;;;;13.48;7.78;;;;;;;;;;5074701;28;20062;-81
2022/03/22 02:35:23;;;;;;;11.55;7.47;;;;;;;;;;5074529;28;20112;-81
2022/03/22 02:37:48;;;;;;;10.25;7.28;;;;;;;;;;5057687;28;20375;-81
2022/03/22 02:40:15;;;;;;;11.02;7.70;;;;;;;;;;5057237;28;20028;-81
2022/03/22 02:42:49;;;;;;;12.23;8.02;;;;;;;;;;5074358;28;20032;-81
2022/03/22 02:45:15;;;;;;;10.73;7.47;;;;;;;;;;5074496;28;20028;-80
2022/03/22 02:47:42;;;;;;;11.38;7.70;;;;;;;;;;5092666;28;20427;-82
2022/03/22 02:50:08;;;;;;;10.60;7.53;;;;;;;;;;5074669;28;20360;-82
2022/03/22 02:52:35;;;;;;;9.20;7.07;;;;;;;;;;5074603;28;20020;-82
2022/03/22 02:55:02;;;;;;;11.63;7.63;;;;;;;;;;5077271;28;20052;-82
2022/03/22 02:57:28;;;;;;;10.13;8.00;;;;;;;;;;5080970;28;20047;-82
2022/03/22 02:59:53;;;;;;;9.18;7.43;;;;;;;;;;5064096;28;20028;-81
2022/03/22 03:02:19;;;;;;;11.05;7.50;;;;;;;;;;5080688;28;20039;-82
2022/03/22 03:04:44;;;;;;;9.45;7.60;;;;;;;;;;5063920;28;20028;-82
2022/03/22 03:07:10;;;;;;;10.15;7.45;;;;;;;;;;5098861;28;20032;-82
2022/03/22 03:09:35;;;;;;;11.90;7.50;;;;;;;;;;5047139;28;20043;-82
2022/03/22 03:12:01;;;;;;;10.35;7.15;;;;;;;;;;5080652;28;20115;-82
2022/03/22 03:14:38;;;;;;;10.57;7.75;;;;;;;;;;5098957;28;20027;-81
2022/03/22 03:17:08;;;;;;;10.55;7.38;;;;;;;;;;5080580;28;20024;-82
2022/03/22 03:19:33;;;;;;;8.80;6.88;;;;;;;;;;5098925;28;20027;-81
2022/03/22 03:21:59;;;;;;;9.80;7.47;;;;;;;;;;5080370;28;20042;-82
2022/03/22 03:24:24;;;;;;;10.43;7.47;;;;;;;;;;5064024;28;20036;-82
2022/03/22 03:26:50;;;;;;;11.88;7.78;;;;;;;;;;5098858;28;20034;-82
2022/03/22 03:29:15;;;;;;;11.02;7.45;;;;;;;;;;5047411;28;20447;-82
2022/03/22 03:31:41;;;;;;;11.30;7.20;;;;;;;;;;5047391;28;20478;-81
2022/03/22 03:34:06;;;;;;;11.02;7.55;;;;;;;;;;5099377;28;20047;-82
2022/03/22 03:36:32;;;;;;;11.88;7.57;;;;;;;;;;5079829;28;20055;-82
2022/03/22 03:38:59;;;;;;;12.20;7.80;;;;;;;;;;5099851;28;20024;-82
2022/03/22 03:47:05;;;;;;;8.75;7.22;;;;;;;;;;5083245;28;20039;-83
2022/03/22 03:49:32;;;;;;;10.55;7.30;;;;;;;;;;5082737;28;20032;-82
2022/03/22 03:51:58;;;;;;;10.50;6.95;;;;;;;;;;5063373;28;20188;-82
2022/03/22 03:54:23;;;;;;;13.43;7.40;;;;;;;;;;5080512;28;20516;-82
2022/03/22 03:56:48;;;;;;;10.38;7.28;;;;;;;;;;5080283;28;20483;-82
2022/03/22 03:59:14;;;;;;;9.13;6.85;;;;;;;;;;5063684;28;20398;-82
2022/03/22 04:01:39;;;;;;;12.05;7.38;;;;;;;;;;5080371;28;20036;-82
2022/03/22 04:04:05;;;;;;;11.02;7.68;;;;;;;;;;5080129;28;20039;-82
2022/03/22 04:06:31;;;;;;;10.82;7.22;;;;;;;;;;5061300;28;20028;-82
2022/03/22 04:08:57;;;;;;;10.30;7.43;;;;;;;;;;5095583;28;20053;-82
2022/03/22 04:11:22;;;;;;;9.55;7.07;;;;;;;;;;5095435;28;20043;-81
2022/03/22 04:13:48;;;;;;;8.00;6.55;;;;;;;;;;5060067;28;20058;-82
2022/03/22 04:16:13;;;;;;;9.38;7.20;;;;;;;;;;5095151;28;20091;-82
2022/03/22 04:18:39;;;;;;;9.43;7.20;;;;;;;;;;5076832;28;20024;-82
2022/03/22 04:21:04;;;;;;;10.02;7.10;;;;;;;;;;5094763;28;20024;-83
2022/03/22 04:23:30;;;;;;;11.10;6.85;;;;;;;;;;5076745;28;20092;-82
2022/03/22 04:25:57;;;;;;;10.90;7.60;;;;;;;;;;5095035;28;20028;-83
2022/03/22 04:33:51;;;;;;;8.93;6.65;;;;;;;;;;5094856;28;20398;-82
2022/03/22 04:36:17;;;;;;;9.85;7.45;;;;;;;;;;5060080;28;20040;-82
2022/03/22 04:38:43;;;;;;;9.48;6.93;;;;;;;;;;5076505;28;20066;-82
2022/03/22 04:41:08;;;;;;;10.18;7.03;;;;;;;;;;5059769;28;20059;-82
2022/03/22 04:43:34;;;;;;;9.88;7.18;;;;;;;;;;5094442;28;20031;-82
2022/03/22 04:46:01;;;;;;;8.80;6.95;;;;;;;;;;5076633;28;20443;-82
2022/03/22 04:48:27;;;;;;;9.23;7.13;;;;;;;;;;5059941;28;20032;-82
2022/03/22 04:56:43;;;;;;;10.07;6.97;;;;;;;;;;5094706;28;20031;-82
2022/03/22 04:59:05;;;;;;;14.75;6.50;;;;;;;;;;5065050;28;20102;-82
2022/03/22 05:01:31;;;;;;;11.57;7.22;;;;;;;;;;5059080;28;20135;-82
2022/03/22 05:03:56;;;;;;;9.57;7.07;;;;;;;;;;5075556;28;20119;-82
2022/03/22 05:06:28;;;;;;;9.05;6.95;;;;;;;;;;5094007;28;20154;-81
2022/03/22 05:08:54;;;;;;;10.55;7.00;;;;;;;;;;5059764;28;20032;-82
2022/03/22 05:11:23;;;;;;;8.80;6.78;;;;;;;;;;5075866;28;20059;-82
2022/03/22 05:13:49;;;;;;;9.23;7.25;;;;;;;;;;5075780;28;20142;-81
2022/03/22 05:16:14;;;;;;;10.20;7.15;;;;;;;;;;5058830;28;20055;-83
2022/03/22 05:18:41;;;;;;;11.68;6.97;;;;;;;;;;5074284;28;20028;-81
2022/03/22 05:21:07;;;;;;;11.27;7.38;;;;;;;;;;5093700;28;20059;-83
2022/03/22 05:23:36;;;;;;;13.30;7.60;;;;;;;;;;5058626;28;20035;-81
2022/03/22 05:26:06;;;;;;;11.85;7.18;;;;;;;;;;5058727;28;20024;-82
2022/03/22 05:28:33;;;;;;;10.48;6.63;;;;;;;;;;5075774;28;20107;-81
2022/03/22 05:30:58;;;;;;;9.80;6.97;;;;;;;;;;5075409;28;20028;-82
2022/03/22 05:33:24;;;;;;;11.93;6.60;;;;;;;;;;5043364;28;20107;-82
2022/03/22 05:35:49;;;;;;;10.70;6.82;;;;;;;;;;5094618;28;20394;-82
2022/03/22 05:38:15;;;;;;;9.90;6.85;;;;;;;;;;5059919;28;20028;-80
2022/03/22 05:40:41;;;;;;;9.70;6.32;;;;;;;;;;5076711;28;20024;-80
2022/03/22 05:43:07;;;;;;;8.88;6.38;;;;;;;;;;5076504;28;20475;-80
2022/03/22 05:45:32;;;;;;;10.38;6.50;;;;;;;;;;5094452;28;20059;-81
2022/03/22 05:48:01;;;;;;;9.60;6.07;;;;;;;;;;5076546;28;20063;-81
2022/03/22 05:50:27;;;;;;;9.93;6.40;;;;;;;;;;5077123;28;20520;-81
2022/03/22 05:52:52;;;;;;;10.50;6.80;;;;;;;;;;5076290;28;20086;-82
2022/03/22 05:55:18;;;;;;;13.45;6.57;;;;;;;;;;5059765;28;20052;-81
2022/03/22 05:57:44;;;;;;;13.75;7.70;;;;;;;;;;5078366;28;20048;-81
2022/03/22 06:00:10;;;;;;;17.45;8.60;;;;;;;;;;5098872;28;20035;-82
2022/03/22 06:02:37;;;;;;;15.20;8.05;;;;;;;;;;5081135;28;20030;-83
2022/03/22 06:05:05;;;;;;;12.32;8.15;;;;;;;;;;5063695;28;20040;-82
2022/03/22 06:07:30;;;;;;;11.25;7.63;;;;;;;;;;5077855;28;20024;-81
2022/03/22 06:09:56;;;;;;;11.55;7.50;;;;;;;;;;5096083;28;20024;-82
2022/03/22 06:12:22;;;;;;;15.60;8.65;;;;;;;;;;5061098;28;20390;-82
2022/03/22 06:15:14;;;;;;;12.77;7.63;;;;;;;;;;5077212;28;20114;-82
2022/03/22 06:17:33;;;;;;;14.32;7.50;;;;;;;;;;5079747;28;20043;-80
2022/03/22 06:19:58;;;;;;;13.02;7.38;;;;;;;;;;5043635;28;20028;-81
2022/03/22 06:22:24;;;;;;;11.63;7.78;;;;;;;;;;5094848;28;20052;-81
2022/03/22 06:24:50;;;;;;;11.98;7.32;;;;;;;;;;5077711;28;20039;-81
2022/03/22 06:27:17;;;;;;;13.35;7.60;;;;;;;;;;5060433;28;20086;-80
2022/03/22 06:29:43;;;;;;;12.23;7.65;;;;;;;;;;5076677;28;20403;-80
2022/03/22 06:32:11;;;;;;;11.98;7.35;;;;;;;;;;5076791;28;20028;-81
2022/03/22 06:34:37;;;;;;;12.27;7.63;;;;;;;;;;5077787;28;20032;-80
2022/03/22 06:37:03;;;;;;;12.00;7.78;;;;;;;;;;5078709;28;20106;-80
2022/03/22 06:39:29;;;;;;;11.90;7.55;;;;;;;;;;5096369;28;20539;-80
2022/03/22 06:41:54;;;;;;;14.57;7.68;;;;;;;;;;5095134;28;20028;-81
2022/03/22 06:44:20;;;;;;;13.43;7.22;;;;;;;;;;5077013;28;20028;-81
2022/03/22 06:46:45;;;;;;;11.10;6.97;;;;;;;;;;5077287;28;20431;-81
2022/03/22 06:49:11;;;;;;;11.57;7.40;;;;;;;;;;5060214;28;20459;-81
2022/03/22 06:51:36;;;;;;;12.77;7.43;;;;;;;;;;5060681;28;20539;-80
2022/03/22 06:54:02;;;;;;;13.98;7.18;;;;;;;;;;5076925;28;20428;-80
2022/03/22 06:56:27;;;;;;;12.93;7.88;;;;;;;;;;5078194;28;20040;-80
2022/03/22 06:58:53;;;;;;;10.38;7.63;;;;;;;;;;5077883;28;20063;-80
2022/03/22 07:01:18;;;;;;;12.73;8.15;;;;;;;;;;5096858;28;20086;-80
2022/03/22 07:03:44;;;;;;;11.10;7.18;;;;;;;;;;5077160;28;20398;-80
2022/03/22 07:06:09;;;;;;;12.95;7.50;;;;;;;;;;5076971;28;20036;-80
2022/03/22 07:08:35;;;;;;;9.65;7.22;;;;;;;;;;5060157;28;20039;-80
2022/03/22 07:13:45;;;;;;;11.20;7.03;;;;;;;;;;5080850;28;20395;-81
2022/03/22 07:16:10;;;;;;;12.55;8.00;;;;;;;;;;5095533;28;20032;-81
2022/03/22 07:18:36;;;;;;;10.30;7.05;;;;;;;;;;5094627;28;20032;-81
2022/03/22 07:21:04;;;;;;;10.82;7.90;;;;;;;;;;5077520;28;20036;-82
2022/03/22 07:23:30;;;;;;;11.82;7.93;;;;;;;;;;5061665;28;20028;-81
2022/03/22 07:25:56;;;;;;;10.55;7.32;;;;;;;;;;5095199;28;20546;-80
2022/03/22 07:28:21;;;;;;;12.40;7.47;;;;;;;;;;5093526;28;20119;-81
2022/03/22 07:30:47;;;;;;;10.95;8.00;;;;;;;;;;5075193;28;20099;-81
2022/03/22 07:33:13;;;;;;;11.45;7.95;;;;;;;;;;5093052;28;20471;-81
2022/03/22 07:35:38;;;;;;;12.95;8.07;;;;;;;;;;5093385;28;20389;-80
2022/03/22 07:38:04;;;;;;;12.70;7.68;;;;;;;;;;5074927;28;20538;-81
2022/03/22 07:40:29;;;;;;;12.02;7.28;;;;;;;;;;5093219;28;20086;-81
2022/03/22 07:42:55;;;;;;;12.07;7.20;;;;;;;;;;5061535;28;20043;-81
2022/03/22 07:45:21;;;;;;;9.13;6.10;;;;;;;;;;5079212;28;20115;-82
2022/03/22 07:47:46;;;;;;;9.30;6.35;;;;;;;;;;5096825;28;20475;-80
2022/03/22 07:53:05;;;;;;;12.93;6.68;;;;;;;;;;5081424;28;20089;-80
2022/03/22 07:55:36;;;;;;;21.50;9.35;;;;;;;;;;5062927;28;20052;-80
2022/03/22 07:58:05;;;;;;;23.17;8.70;;;;;;;;;;5062070;28;20035;-81
2022/03/22 08:00:31;;;;;;;18.55;8.63;;;;;;;;;;5093432;28;20039;-81
2022/03/22 08:02:58;;;;;;;15.50;8.13;;;;;;;;;;5095749;28;20394;-81
2022/03/22 08:05:24;;;;;;;14.20;6.40;;;;;;;;;;5061398;28;20028;-79
2022/03/22 08:07:50;;;;;;;17.15;7.10;;;;;;;;;;5079015;28;20048;-79
2022/03/22 08:10:16;;;;;;;15.30;6.45;;;;;;;;;;5096241;28;20036;-79
2022/03/22 08:12:42;;;;;;;11.95;6.82;;;;;;;;;;5096452;28;20058;-82
2022/03/22 08:15:09;;;;;;;12.25;5.90;;;;;;;;;;5061564;28;20081;-80
2022/03/22 08:17:39;;;;;;;12.02;6.63;;;;;;;;;;5096870;28;20032;-84
2022/03/22 08:20:06;;;;;;;13.77;6.75;;;;;;;;;;5045531;28;20055;-82
2022/03/22 08:22:34;;;;;;;12.50;6.78;;;;;;;;;;5061511;28;20032;-82
2022/03/22 08:25:00;;;;;;;17.65;7.20;;;;;;;;;;5078581;28;20032;-81
2022/03/22 08:27:25;;;;;;;21.17;8.18;;;;;;;;;;5078066;28;20031;-81
2022/03/22 08:29:51;;;;;;;13.70;8.95;;;;;;;;;;5096654;28;20032;-81
2022/03/22 08:32:17;;;;;;;18.77;9.77;;;;;;;;;;5057475;28;20024;-80
2022/03/22 08:34:42;;;;;;;13.55;8.93;;;;;;;;;;5058256;28;20398;-81
2022/03/22 08:37:08;;;;;;;15.23;9.13;;;;;;;;;;5084306;28;20024;-81
2022/03/22 08:39:33;;;;;;;19.35;9.27;;;;;;;;;;5096032;28;20031;-82
2022/03/22 08:41:59;;;;;;;15.35;9.50;;;;;;;;;;5095437;28;20083;-81
2022/03/22 08:44:24;;;;;;;13.70;9.20;;;;;;;;;;5077489;28;20032;-82
2022/03/22 08:46:51;;;;;;;16.60;9.50;;;;;;;;;;5077817;28;20032;-81
2022/03/22 08:49:17;;;;;;;15.32;9.98;;;;;;;;;;5077714;28;20036;-81
2022/03/22 08:51:43;;;;;;;16.02;9.85;;;;;;;;;;5077415;28;20032;-82
2022/03/22 08:54:08;;;;;;;12.25;9.48;;;;;;;;;;5094969;28;20024;-83
2022/03/22 08:56:34;;;;;;;13.77;9.85;;;;;;;;;;5077451;28;20406;-82
2022/03/22 08:59:00;;;;;;;17.85;10.25;;;;;;;;;;5077442;28;20076;-82
2022/03/22 09:01:27;;;;;;;13.18;9.38;;;;;;;;;;5095277;28;20024;-82
2022/03/22 09:06:40;;;;;;;17.20;9.13;;;;;;;;;;5095298;28;20039;-82
2022/03/22 09:09:06;;;;;;;14.05;9.25;;;;;;;;;;5077905;28;20024;-82
2022/03/22 09:11:33;;;;;;;14.05;9.05;;;;;;;;;;5095270;28;20447;-79
2022/03/22 09:13:59;;;;;;;15.68;8.80;;;;;;;;;;5077584;28;20024;-81
2022/03/22 09:16:26;;;;;;;12.90;8.43;;;;;;;;;;5076514;28;20081;-80
2022/03/22 09:18:52;;;;;;;13.32;8.52;;;;;;;;;;5077394;28;20151;-80
2022/03/22 09:21:17;;;;;;;15.35;7.97;;;;;;;;;;5094881;28;20056;-81
2022/03/22 09:23:44;;;;;;;11.80;8.35;;;;;;;;;;5076793;28;20088;-80
2022/03/22 09:26:10;;;;;;;13.18;7.88;;;;;;;;;;5060249;28;20028;-80
2022/03/22 09:28:36;;;;;;;14.00;7.68;;;;;;;;;;5076751;28;20028;-77
2022/03/22 09:31:02;;;;;;;10.98;7.45;;;;;;;;;;5094543;28;20028;-77
2022/03/22 09:33:28;;;;;;;9.27;7.28;;;;;;;;;;5094670;28;20077;-77
2022/03/22 09:35:57;;;;;;;11.00;6.95;;;;;;;;;;5076811;28;20471;-78
2022/03/22 09:38:22;;;;;;;11.23;7.25;;;;;;;;;;5094448;28;20036;-77
2022/03/22 09:40:48;;;;;;;11.82;7.38;;;;;;;;;;5095177;28;20144;-77
2022/03/22 09:43:14;;;;;;;10.52;6.32;;;;;;;;;;5095276;28;20062;-79
2022/03/22 09:45:42;;;;;;;10.93;6.63;;;;;;;;;;5079801;28;20028;-79
2022/03/22 09:48:07;;;;;;;7.68;5.80;;;;;;;;;;5095414;28;20039;-83
2022/03/22 09:53:17;;;;;;;;;;;;;;;;;;5094994;28;20039;-78
2022/03/22 09:55:43;;;;;;;11.73;6.43;;;;;;;;;;5094253;28;20378;-78
2022/03/22 09:58:08;;;;;;;8.30;5.78;;;;;;;;;;5076651;28;20389;-77
2022/03/22 10:00:34;;;;;;;10.60;5.82;;;;;;;;;;5094569;28;20103;-80
2022/03/22 10:02:59;;;;;;;11.13;6.45;;;;;;;;;;5094427;28;20111;-78
2022/03/22 10:05:26;;;;;;;12.30;6.32;;;;;;;;;;5093704;28;20062;-78
2022/03/22 10:08:00;;;;;;;9.68;6.53;;;;;;;;;;5077246;28;20382;-78
2022/03/22 10:10:27;;;;;;;11.35;6.22;;;;;;;;;;5076329;28;20035;-80
2022/03/22 10:12:59;;;;;;;9.20;6.28;;;;;;;;;;5076262;28;20030;-79
2022/03/22 10:15:42;;;;;;;8.82;6.47;;;;;;;;;;5076565;28;20038;-79
2022/03/22 10:18:10;;;;;;;15.32;6.03;;;;;;;;;;5059703;28;20532;-80
2022/03/22 10:20:37;;;;;;;8.52;6.30;;;;;;;;;;5076176;28;20024;-78
2022/03/22 10:23:05;;;;;;;12.52;6.07;;;;;;;;;;5076349;28;20081;-79
2022/03/22 10:25:33;;;;;;;12.38;6.50;;;;;;;;;;5095071;28;20039;-79
2022/03/22 10:28:00;;;;;;;12.77;6.20;;;;;;;;;;5059327;28;20036;-78
2022/03/22 10:30:26;;;;;;;8.27;6.13;;;;;;;;;;5059597;28;20016;-79
2022/03/22 10:32:52;;;;;;;12.57;5.88;;;;;;;;;;5059621;28;20016;-85
2022/03/22 10:35:23;;;;;;;12.38;6.65;;;;;;;;;;5078617;28;20034;-84
2022/03/22 10:37:50;;;;;;;13.43;6.45;;;;;;;;;;5059160;28;20027;-81
2022/03/22 10:40:23;;;;;;;11.50;7.03;;;;;;;;;;5059379;28;20028;-80
2022/03/22 10:42:55;;;;;;;14.65;6.22;;;;;;;;;;5075660;28;20115;-81
2022/03/22 10:45:20;;;;;;;10.65;6.07;;;;;;;;;;5075715;28;20058;-80
2022/03/22 10:47:47;;;;;;;10.27;6.68;;;;;;;;;;5093894;28;20023;-80
2022/03/22 10:50:13;;;;;;;10.85;6.85;;;;;;;;;;5075564;28;20475;-81
2022/03/22 10:52:50;;;;;;;11.70;6.78;;;;;;;;;;5093884;28;20020;-80
2022/03/22 10:55:21;;;;;;;9.57;6.60;;;;;;;;;;5075176;28;20044;-80
2022/03/22 10:57:58;;;;;;;11.57;7.20;;;;;;;;;;5093785;28;20466;-80
2022/03/22 11:00:24;;;;;;;8.93;5.93;;;;;;;;;;5075384;28;20028;-80
2022/03/22 11:02:52;;;;;;;9.48;6.22;;;;;;;;;;5058628;28;20039;-80
2022/03/22 11:05:19;;;;;;;7.38;5.97;;;;;;;;;;5093241;28;20024;-79
2022/03/22 11:07:46;;;;;;;8.88;5.88;;;;;;;;;;5093668;28;20028;-79
2022/03/22 11:10:12;;;;;;;11.40;6.80;;;;;;;;;;5075305;28;20534;-79
2022/03/22 11:12:38;;;;;;;8.70;6.25;;;;;;;;;;5058480;28;20055;-79
2022/03/22 11:15:05;;;;;;;10.20;6.40;;;;;;;;;;5058754;28;20027;-79
2022/03/22 11:17:34;;;;;;;6.95;5.47;;;;;;;;;;5079334;28;20432;-79
2022/03/22 11:20:01;;;;;;;10.52;5.82;;;;;;;;;;5063018;28;20028;-79
2022/03/22 11:22:26;;;;;;;11.35;5.78;;;;;;;;;;5097613;28;20035;-79
2022/03/22 11:24:52;;;;;;;6.88;5.78;;;;;;;;;;5045846;28;20114;-79
2022/03/22 11:27:27;;;;;;;7.72;5.68;;;;;;;;;;5079181;28;20032;-80
2022/03/22 11:29:53;;;;;;;9.25;5.68;;;;;;;;;;5098386;28;20470;-79
2022/03/22 11:35:12;;;;;;;7.70;5.35;;;;;;;;;;5097840;28;20035;-78
2022/03/22 11:37:37;;;;;;;10.63;6.13;;;;;;;;;;5063031;28;20031;-78
2022/03/22 11:42:53;;;;;;;6.32;4.93;;;;;;;;;;5082499;28;20074;-81
2022/03/22 11:45:19;;;;;;;9.20;5.13;;;;;;;;;;5080268;28;20028;-80
2022/03/22 11:47:49;;;;;;;8.90;4.93;;;;;;;;;;5079534;28;20094;-79
2022/03/22 11:50:17;;;;;;;6.70;5.03;;;;;;;;;;5097926;28;20024;-79
2022/03/22 11:52:44;;;;;;;9.00;5.07;;;;;;;;;;5097470;28;20086;-79
2022/03/22 11:55:11;;;;;;;12.32;5.40;;;;;;;;;;5062533;28;20081;-78
2022/03/22 11:57:53;;;;;;;9.82;5.40;;;;;;;;;;5096962;28;20463;-79
2022/03/22 12:00:51;;;;;;;8.45;5.43;;;;;;;;;;5078361;28;20035;-79
2022/03/22 12:03:21;;;;;;;8.70;5.10;;;;;;;;;;5078660;28;20390;-80
2022/03/22 12:05:47;;;;;;;9.40;5.22;;;;;;;;;;5061853;28;20028;-79
2022/03/22 12:08:14;;;;;;;7.22;5.10;;;;;;;;;;5061447;28;20461;-79
2022/03/22 12:10:40;;;;;;;8.23;4.70;;;;;;;;;;5078042;28;20024;-80
2022/03/22 12:13:05;;;;;;;9.90;4.70;;;;;;;;;;5061716;28;20024;-79
2022/03/22 12:15:31;;;;;;;6.95;4.82;;;;;;;;;;5078481;28;20471;-80
2022/03/22 12:17:57;;;;;;;6.88;4.85;;;;;;;;;;5061370;28;20032;-80
2022/03/22 12:20:25;;;;;;;8.10;5.15;;;;;;;;;;5078689;28;20028;-79
2022/03/22 12:22:53;;;;;;;9.43;5.35;;;;;;;;;;5096052;28;20085;-79
2022/03/22 12:25:30;;;;;;;7.03;4.28;;;;;;;;;;5061304;28;20466;-79
2022/03/22 12:28:10;;;;;;;6.80;4.65;;;;;;;;;;5077606;28;20060;-79
2022/03/22 12:30:40;;;;;;;8.20;4.55;;;;;;;;;;5078007;28;20028;-80
2022/03/22 12:33:11;;;;;;;9.27;5.03;;;;;;;;;;5061076;28;20028;-80
2022/03/22 12:35:37;;;;;;;7.20;4.43;;;;;;;;;;5078210;28;20483;-79
2022/03/22 12:38:03;;;;;;;11.73;5.43;;;;;;;;;;5096459;28;20031;-79
2022/03/22 12:40:28;;;;;;;7.93;4.28;;;;;;;;;;5061014;28;20051;-80
2022/03/22 12:42:55;;;;;;;5.47;4.60;;;;;;;;;;5077704;28;20055;-80
2022/03/22 12:45:22;;;;;;;11.32;4.82;;;;;;;;;;5060948;28;20020;-80
2022/03/22 12:47:50;;;;;;;8.40;4.78;;;;;;;;;;5077942;28;20032;-80
2022/03/22 12:50:18;;;;;;;7.25;4.53;;;;;;;;;;5078226;28;20032;-80
2022/03/22 12:52:43;;;;;;;5.70;4.68;;;;;;;;;;5095500;28;20020;-80
2022/03/22 12:55:11;;;;;;;8.73;4.43;;;;;;;;;;5060652;28;20109;-80
2022/03/22 12:57:40;;;;;;;6.63;4.53;;;;;;;;;;5095381;28;20039;-80
2022/03/22 13:00:06;;;;;;;9.27;4.88;;;;;;;;;;5045555;28;20567;-80
2022/03/22 13:02:32;;;;;;;9.10;4.40;;;;;;;;;;5061296;28;20032;-82
2022/03/22 13:04:57;;;;;;;6.40;4.28;;;;;;;;;;5077569;28;20475;-81
2022/03/22 13:07:24;;;;;;;8.07;4.90;;;;;;;;;;5095580;28;20036;-80
2022/03/22 13:12:35;;;;;;;6.43;4.35;;;;;;;;;;5081182;28;20085;-81
2022/03/22 13:15:06;;;;;;;8.60;4.90;;;;;;;;;;5065673;28;20490;-82
2022/03/22 13:17:32;;;;;;;8.88;4.43;;;;;;;;;;5083348;28;20076;-82
2022/03/22 13:20:03;;;;;;;6.80;4.57;;;;;;;;;;5099463;28;20031;-82
2022/03/22 13:22:28;;;;;;;10.82;4.55;;;;;;;;;;5095752;28;20115;-80
2022/03/22 13:25:05;;;;;;;7.78;4.20;;;;;;;;;;5078060;28;20068;-80
2022/03/22 13:27:31;;;;;;;5.65;4.63;;;;;;;;;;5076873;28;20115;-81
2022/03/22 13:29:56;;;;;;;8.25;4.47;;;;;;;;;;5094971;28;20067;-80
2022/03/22 13:32:30;;;;;;;10.23;4.63;;;;;;;;;;5077307;28;20032;-80
2022/03/22 13:35:02;;;;;;;8.40;4.68;;;;;;;;;;5076948;28;20028;-79
2022/03/22 13:37:28;;;;;;;9.13;4.85;;;;;;;;;;5060153;28;20024;-79
2022/03/22 13:40:06;;;;;;;8.75;4.60;;;;;;;;;;5058765;28;20483;-79
2022/03/22 13:42:31;;;;;;;5.60;4.45;;;;;;;;;;5077247;28;20111;-79
2022/03/22 13:44:59;;;;;;;8.75;5.32;;;;;;;;;;5096107;28;20482;-81
2022/03/22 13:47:29;;;;;;;9.13;4.07;;;;;;;;;;5060618;28;20024;-83
2022/03/22 13:49:56;;;;;;;9.20;4.72;;;;;;;;;;5076775;28;20535;-83
2022/03/22 13:52:32;;;;;;;11.20;4.93;;;;;;;;;;5060010;28;20027;-82
2022/03/22 13:54:58;;;;;;;8.48;4.82;;;;;;;;;;5094405;28;20097;-83
2022/03/22 13:57:30;;;;;;;7.93;5.00;;;;;;;;;;5076894;28;20114;-83
2022/03/22 13:59:57;;;;;;;8.05;4.70;;;;;;;;;;5076200;28;20024;-83
2022/03/22 14:02:22;;;;;;;9.98;4.60;;;;;;;;;;5076523;28;20052;-83
2022/03/22 14:04:48;;;;;;;7.75;4.35;;;;;;;;;;5076344;28;20059;-82
2022/03/22 14:07:13;;;;;;;7.47;4.65;;;;;;;;;;5076563;28;20028;-82
2022/03/22 14:09:38;;;;;;;8.50;5.45;;;;;;;;;;5094045;28;20036;-82
2022/03/22 14:12:04;;;;;;;7.00;5.07;;;;;;;;;;5076248;28;20039;-82
2022/03/22 14:14:30;;;;;;;6.13;4.68;;;;;;;;;;5094285;28;20040;-82
2022/03/22 14:16:55;;;;;;;5.35;4.80;;;;;;;;;;5075941;28;20496;-82
2022/03/22 14:19:20;;;;;;;7.22;5.00;;;;;;;;;;5076912;28;20024;-82
2022/03/22 14:21:46;;;;;;;7.20;4.50;;;;;;;;;;5093886;28;20032;-82
2022/03/22 14:24:11;;;;;;;6.38;4.68;;;;;;;;;;5076299;28;20035;-82
2022/03/22 14:26:37;;;;;;;8.60;4.93;;;;;;;;;;5075739;28;20479;-82
2022/03/22 14:29:02;;;;;;;8.48;5.10;;;;;;;;;;5075730;28;20517;-82
2022/03/22 14:31:29;;;;;;;9.93;4.78;;;;;;;;;;5094152;28;20027;-82
2022/03/22 14:33:54;;;;;;;6.28;3.90;;;;;;;;;;5093690;28;20031;-87
2022/03/22 14:36:19;;;;;;;6.78;3.83;;;;;;;;;;5059029;28;20497;-81
2022/03/22 14:38:45;;;;;;;7.75;4.40;;;;;;;;;;5075717;28;20382;-83
2022/03/22 14:41:25;;;;;;;6.53;4.40;;;;;;;;;;5075667;28;20036;-83
2022/03/22 14:43:54;;;;;;;5.70;3.92;;;;;;;;;;5061384;28;20471;-82
2022/03/22 14:46:21;;;;;;;6.75;4.00;;;;;;;;;;5058965;28;20101;-83
2022/03/22 14:48:49;;;;;;;7.00;4.18;;;;;;;;;;5075523;28;20028;-83
2022/03/22 14:51:18;;;;;;;7.53;4.53;;;;;;;;;;5058811;28;20390;-83
2022/03/22 14:59:11;;;;;;;7.18;4.70;;;;;;;;;;5078368;28;20097;-83
2022/03/22 15:01:37;;;;;;;6.57;4.43;;;;;;;;;;5058555;28;20425;-83
2022/03/22 15:04:02;;;;;;;8.20;4.30;;;;;;;;;;5093309;28;20056;-84
2022/03/22 15:06:28;;;;;;;8.68;4.75;;;;;;;;;;5075873;28;20486;-83
2022/03/22 15:08:54;;;;;;;7.47;4.78;;;;;;;;;;5093538;28;20058;-84
2022/03/22 15:11:21;;;;;;;10.38;5.53;;;;;;;;;;5093505;28;20035;-83
2022/03/22 15:13:49;;;;;;;6.85;4.72;;;;;;;;;;5075192;28;20050;-83
2022/03/22 15:16:16;;;;;;;7.97;4.80;;;;;;;;;;5058630;28;20035;-83
2022/03/22 15:18:41;;;;;;;8.65;4.80;;;;;;;;;;5093709;28;20032;-83
2022/03/22 15:21:08;;;;;;;7.03;4.40;;;;;;;;;;5075451;28;20390;-83